Time;durP1;ratioP1;P1;durP2;ratioP2;P2;SDS_P1;SDS_P2;PMS_P1;PMS_P2;Temp;Humidity;BMP_temperature;BMP_pressure;BME280_temperature;BME280_humidity;BME280_pressure;Samples;Min_cycle;Max_cycle;Signal;HPM_P1;HPM_P2
2022/03/10 00:00:03;;;;;;;19.83;10.50;;;0.10;99.90;;;;;;4955019;29;20078;-87
2022/03/10 00:02:29;;;;;;;23.33;11.17;;;0.10;99.90;;;;;;4955627;29;20442;-86
2022/03/10 00:04:54;;;;;;;22.50;10.93;;;0.00;99.90;;;;;;4955407;29;20074;-86
2022/03/10 00:07:20;;;;;;;21.03;10.87;;;0.00;99.90;;;;;;4938784;29;20078;-87
2022/03/10 00:09:46;;;;;;;23.03;11.10;;;0.00;99.90;;;;;;4938372;29;20098;-87
2022/03/10 00:12:11;;;;;;;21.67;10.67;;;0.00;99.90;;;;;;4938237;29;20051;-86
2022/03/10 00:14:37;;;;;;;20.67;10.63;;;0.00;99.90;;;;;;4956473;29;20047;-87
2022/03/10 00:17:03;;;;;;;20.70;10.57;;;-0.10;99.90;;;;;;4955380;29;20451;-87
2022/03/10 00:19:28;;;;;;;24.23;10.53;;;-0.10;99.90;;;;;;4937838;29;20051;-86
2022/03/10 00:21:54;;;;;;;19.60;10.53;;;-0.10;99.90;;;;;;4937278;29;20048;-86
2022/03/10 00:24:19;;;;;;;20.57;10.50;;;-0.10;99.90;;;;;;4937596;29;20438;-86
2022/03/10 00:26:46;;;;;;;22.97;11.60;;;-0.20;99.90;;;;;;4937834;29;20055;-86
2022/03/10 00:29:11;;;;;;;21.47;10.80;;;-0.10;99.90;;;;;;4936533;29;20510;-87
2022/03/10 00:31:37;;;;;;;22.97;10.90;;;-0.10;99.90;;;;;;4937634;29;20047;-86
2022/03/10 00:34:03;;;;;;;21.43;11.03;;;-0.20;99.90;;;;;;4954789;29;20194;-86
2022/03/10 00:36:29;;;;;;;21.20;10.60;;;-0.30;99.90;;;;;;4936803;29;20566;-86
2022/03/10 00:38:54;;;;;;;21.50;10.40;;;-0.40;99.90;;;;;;4938068;29;20106;-87
2022/03/10 00:41:20;;;;;;;22.77;11.73;;;-0.40;99.90;;;;;;4938103;29;20039;-88
2022/03/10 00:43:46;;;;;;;25.40;11.73;;;-0.50;99.90;;;;;;4936973;29;20051;-87
2022/03/10 00:46:11;;;;;;;23.67;11.10;;;-0.40;99.90;;;;;;4937614;29;20050;-86
2022/03/10 00:48:37;;;;;;;20.03;10.60;;;-0.60;99.90;;;;;;4937216;29;20051;-86
2022/03/10 00:51:04;;;;;;;22.27;11.37;;;-0.40;99.90;;;;;;4937160;29;20407;-86
2022/03/10 00:53:29;;;;;;;22.23;10.80;;;-0.40;99.90;;;;;;4937322;29;20179;-87
2022/03/10 00:55:55;;;;;;;24.77;11.53;;;-0.70;99.90;;;;;;4936890;29;20169;-86
2022/03/10 00:58:21;;;;;;;20.97;10.87;;;-0.70;99.90;;;;;;4937064;29;20055;-86
2022/03/10 01:00:46;;;;;;;22.90;11.40;;;-0.80;99.90;;;;;;4937635;29;20546;-86
2022/03/10 01:03:12;;;;;;;22.83;11.20;;;-0.80;99.90;;;;;;4936398;29;20127;-86
2022/03/10 01:05:38;;;;;;;21.90;11.30;;;-0.70;99.90;;;;;;4937442;29;20051;-86
2022/03/10 01:08:04;;;;;;;23.30;11.03;;;-0.90;99.90;;;;;;4937104;29;20475;-86
2022/03/10 01:10:30;;;;;;;22.47;12.27;;;-0.90;99.90;;;;;;4936942;29;20051;-86
2022/03/10 01:12:55;;;;;;;20.57;10.77;;;-0.90;99.90;;;;;;4955332;29;20050;-86
2022/03/10 01:15:26;;;;;;;23.77;12.30;;;-1.00;99.90;;;;;;4954984;29;20047;-86
2022/03/10 01:17:52;;;;;;;22.53;11.60;;;-1.00;99.90;;;;;;4936932;29;20047;-86
2022/03/10 01:20:19;;;;;;;25.23;11.60;;;-1.00;99.90;;;;;;4937271;28;20135;-86
2022/03/10 01:22:45;;;;;;;24.53;12.37;;;-1.00;99.90;;;;;;4954601;29;20054;-86
2022/03/10 01:25:11;;;;;;;22.27;11.30;;;-0.90;99.90;;;;;;4936423;29;20053;-86
2022/03/10 01:27:36;;;;;;;21.70;11.40;;;-1.00;99.90;;;;;;4936923;29;20126;-85
2022/03/10 01:30:04;;;;;;;22.83;11.37;;;-1.10;99.90;;;;;;4955001;29;20126;-86
2022/03/10 01:32:30;;;;;;;20.87;10.93;;;-1.10;99.90;;;;;;4936889;29;20071;-86
2022/03/10 01:34:56;;;;;;;23.33;11.10;;;-1.10;99.90;;;;;;4937726;29;20089;-86
2022/03/10 01:37:21;;;;;;;21.63;11.20;;;-1.20;99.90;;;;;;4936897;29;20050;-86
2022/03/10 01:39:47;;;;;;;23.07;11.37;;;-1.20;99.90;;;;;;4937163;29;20051;-86
2022/03/10 01:42:13;;;;;;;24.27;11.70;;;-1.20;99.90;;;;;;4936680;29;20046;-86
2022/03/10 01:44:39;;;;;;;23.63;11.37;;;-1.10;99.90;;;;;;4943709;23;20517;-86
2022/03/10 01:47:05;;;;;;;19.67;10.60;;;-0.20;99.90;;;;;;4954487;28;20043;-86
2022/03/10 01:49:32;;;;;;;21.53;11.00;;;-1.20;99.90;;;;;;4941206;29;20051;-85
2022/03/10 01:51:59;;;;;;;26.07;11.77;;;-1.10;99.90;;;;;;4957544;29;20066;-86
2022/03/10 01:54:24;;;;;;;22.77;11.47;;;-1.20;99.90;;;;;;4940192;29;20070;-86
2022/03/10 01:56:51;;;;;;;22.77;11.60;;;-1.20;99.90;;;;;;4941440;29;20431;-86
2022/03/10 01:59:18;;;;;;;24.10;10.97;;;-1.00;99.90;;;;;;4939508;29;20051;-86
2022/03/10 02:01:44;;;;;;;23.03;11.40;;;-1.20;99.90;;;;;;4940767;29;20039;-86
2022/03/10 02:04:10;;;;;;;21.10;11.07;;;-1.20;99.90;;;;;;4958751;29;20035;-86
2022/03/10 02:06:36;;;;;;;21.50;11.07;;;-1.10;99.90;;;;;;4939603;29;20483;-86
2022/03/10 02:11:48;;;;;;;22.70;10.97;;;-1.10;99.90;;;;;;4957881;29;20055;-86
2022/03/10 02:19:42;;;;;;;;;;;-0.90;99.90;;;;;;4955395;29;20051;-86
2022/03/10 02:22:10;;;;;;;24.40;11.20;;;-1.10;99.90;;;;;;4943138;29;20497;-86
2022/03/10 02:24:37;;;;;;;21.17;10.70;;;-1.00;99.90;;;;;;4940490;29;20053;-86
2022/03/10 02:27:18;;;;;;;21.30;10.40;;;-1.00;99.90;;;;;;4939778;29;20511;-86
2022/03/10 02:29:44;;;;;;;22.47;10.70;;;-0.90;99.90;;;;;;4939691;29;20398;-86
2022/03/10 02:32:14;;;;;;;20.57;10.47;;;-0.90;99.90;;;;;;4939379;29;20043;-86
2022/03/10 02:34:40;;;;;;;24.13;11.73;;;-0.90;99.90;;;;;;4938784;29;20056;-85
2022/03/10 02:37:06;;;;;;;21.00;9.70;;;-0.90;99.90;;;;;;4957081;29;20047;-85
2022/03/10 02:39:32;;;;;;;21.90;10.73;;;-0.90;99.90;;;;;;4940155;29;20163;-86
2022/03/10 02:41:58;;;;;;;22.53;10.77;;;-0.90;99.90;;;;;;4939657;29;20411;-85
2022/03/10 02:44:24;;;;;;;22.80;10.90;;;-0.90;99.90;;;;;;4939530;29;20065;-86
2022/03/10 02:46:51;;;;;;;19.10;9.73;;;-0.90;99.90;;;;;;4956813;29;20475;-85
2022/03/10 02:49:17;;;;;;;21.10;11.27;;;-0.90;99.90;;;;;;4955727;29;20047;-86
2022/03/10 02:51:43;;;;;;;18.80;9.97;;;-1.00;99.90;;;;;;4939897;29;20040;-86
2022/03/10 02:54:08;;;;;;;19.50;10.00;;;-0.90;99.90;;;;;;4939133;29;20062;-85
2022/03/10 02:56:34;;;;;;;18.43;8.93;;;-0.90;99.90;;;;;;4939025;29;20130;-86
2022/03/10 02:59:00;;;;;;;21.93;10.27;;;-1.00;99.90;;;;;;4938730;29;20051;-85
2022/03/10 03:01:25;;;;;;;21.23;9.70;;;-0.90;99.90;;;;;;4957157;28;20035;-85
2022/03/10 03:03:51;;;;;;;20.60;10.03;;;-1.00;99.90;;;;;;4974425;28;20043;-85
2022/03/10 03:06:16;;;;;;;21.73;9.77;;;-0.90;99.90;;;;;;4957345;28;20610;-85
2022/03/10 03:08:42;;;;;;;20.43;10.27;;;-0.90;99.90;;;;;;4958191;28;20049;-85
2022/03/10 03:11:07;;;;;;;20.27;9.90;;;-1.00;99.90;;;;;;4957800;28;20054;-85
2022/03/10 03:13:33;;;;;;;20.27;10.23;;;-1.00;99.90;;;;;;4958045;28;20475;-85
2022/03/10 03:15:59;;;;;;;21.23;10.63;;;-1.00;99.90;;;;;;4975589;28;20047;-86
2022/03/10 03:18:24;;;;;;;23.57;9.77;;;-1.00;99.90;;;;;;4957781;28;20073;-86
2022/03/10 03:20:50;;;;;;;21.80;10.53;;;-1.00;99.90;;;;;;4958987;28;20110;-86
2022/03/10 03:23:16;;;;;;;20.93;10.63;;;-1.10;99.90;;;;;;4975339;28;20057;-85
2022/03/10 03:25:42;;;;;;;20.83;10.93;;;-1.20;99.90;;;;;;4957638;28;20038;-85
2022/03/10 03:28:07;;;;;;;21.23;10.77;;;-1.20;99.90;;;;;;4958274;28;20043;-85
2022/03/10 03:30:33;;;;;;;21.07;9.70;;;-1.20;99.90;;;;;;4957195;28;20498;-86
2022/03/10 03:32:58;;;;;;;20.73;10.50;;;-1.20;99.90;;;;;;4958565;28;20049;-86
2022/03/10 03:35:25;;;;;;;20.53;10.07;;;-1.00;99.90;;;;;;4975001;28;20135;-86
2022/03/10 03:37:50;;;;;;;22.83;10.00;;;-1.30;99.90;;;;;;4957586;28;20089;-86
2022/03/10 03:40:16;;;;;;;20.80;10.20;;;-1.40;99.90;;;;;;4957857;28;20051;-86
2022/03/10 03:42:41;;;;;;;20.67;9.87;;;-1.40;99.90;;;;;;4958282;28;20051;-86
2022/03/10 03:45:09;;;;;;;21.30;10.03;;;-1.40;99.90;;;;;;4974780;28;20047;-86
2022/03/10 03:47:34;;;;;;;21.27;10.13;;;-1.40;99.90;;;;;;4957757;28;20446;-86
2022/03/10 03:50:00;;;;;;;19.17;10.40;;;-1.50;99.90;;;;;;4975702;28;20046;-86
2022/03/10 03:52:26;;;;;;;20.73;10.10;;;-1.50;99.90;;;;;;4974360;28;20043;-86
2022/03/10 03:54:51;;;;;;;19.30;10.30;;;-1.50;99.90;;;;;;4957746;28;20046;-86
2022/03/10 03:57:17;;;;;;;20.60;10.43;;;-1.40;99.90;;;;;;4957383;28;20047;-86
2022/03/10 03:59:43;;;;;;;21.67;10.23;;;-1.50;99.90;;;;;;4956621;28;20154;-86
2022/03/10 04:02:09;;;;;;;20.47;10.73;;;-1.60;99.90;;;;;;4957194;28;20060;-86
2022/03/10 04:04:34;;;;;;;22.23;9.80;;;-1.60;99.90;;;;;;4957596;28;20082;-85
2022/03/10 04:07:00;;;;;;;21.37;10.53;;;-1.60;99.90;;;;;;4974347;28;20459;-86
2022/03/10 04:09:25;;;;;;;18.43;10.07;;;-1.50;99.90;;;;;;4974554;28;20472;-86
2022/03/10 04:11:51;;;;;;;22.13;10.57;;;-1.60;99.90;;;;;;4957858;28;20482;-86
2022/03/10 04:14:18;;;;;;;21.20;10.50;;;-1.60;99.90;;;;;;4956563;28;20051;-86
2022/03/10 04:16:43;;;;;;;21.00;10.57;;;-1.60;99.90;;;;;;4957768;28;20046;-86
2022/03/10 04:19:09;;;;;;;21.60;10.77;;;-1.60;99.90;;;;;;4957112;28;20602;-86
2022/03/10 04:21:35;;;;;;;19.80;9.90;;;-1.60;99.90;;;;;;4973914;28;20043;-86
2022/03/10 04:24:00;;;;;;;21.10;10.20;;;-1.60;99.90;;;;;;4974414;28;20089;-86
2022/03/10 04:26:26;;;;;;;20.73;10.53;;;-1.60;99.90;;;;;;4956675;28;20038;-85
2022/03/10 04:28:51;;;;;;;20.40;10.47;;;-1.40;99.90;;;;;;4956169;28;20046;-86
2022/03/10 04:31:17;;;;;;;21.37;10.37;;;-1.60;99.90;;;;;;4956767;28;20042;-86
2022/03/10 04:33:43;;;;;;;18.67;9.80;;;-1.60;99.90;;;;;;4956256;28;20043;-86
2022/03/10 04:36:08;;;;;;;21.30;10.60;;;-1.60;99.90;;;;;;4956727;28;20049;-83
2022/03/10 04:38:34;;;;;;;19.90;10.47;;;-1.70;99.90;;;;;;4957166;28;20454;-84
2022/03/10 04:41:00;;;;;;;20.07;10.20;;;-1.70;99.90;;;;;;4956244;28;20153;-83
2022/03/10 04:43:25;;;;;;;22.17;10.80;;;-1.70;99.90;;;;;;4957069;28;20078;-83
2022/03/10 04:45:52;;;;;;;22.57;10.93;;;-1.60;99.90;;;;;;4974785;28;20495;-83
2022/03/10 04:48:17;;;;;;;20.40;10.27;;;-1.70;99.90;;;;;;4973489;28;20050;-86
2022/03/10 04:50:43;;;;;;;20.00;10.47;;;-1.80;99.90;;;;;;4956805;28;20050;-85
2022/03/10 04:53:09;;;;;;;22.23;10.73;;;-1.70;99.90;;;;;;4956440;28;20097;-86
2022/03/10 04:55:35;;;;;;;21.67;10.57;;;-1.80;99.90;;;;;;4956007;28;20046;-85
2022/03/10 04:58:01;;;;;;;22.03;10.20;;;-1.80;99.90;;;;;;4957227;28;20051;-86
2022/03/10 05:00:26;;;;;;;22.40;11.07;;;-1.80;99.90;;;;;;4954863;28;20414;-86
2022/03/10 05:02:52;;;;;;;22.63;10.67;;;-1.80;99.90;;;;;;4925500;28;20039;-86
2022/03/10 05:05:18;;;;;;;20.30;10.20;;;-1.80;99.90;;;;;;4952974;28;20055;-86
2022/03/10 05:07:45;;;;;;;21.03;10.30;;;-1.80;99.90;;;;;;4955672;28;20051;-86
2022/03/10 05:10:12;;;;;;;19.90;9.87;;;-1.80;99.90;;;;;;4955281;28;20039;-86
2022/03/10 05:12:52;;;;;;;22.27;10.40;;;-1.80;99.90;;;;;;4956193;28;20046;-86
2022/03/10 05:15:23;;;;;;;22.93;10.67;;;-1.80;99.90;;;;;;4955922;28;20126;-85
2022/03/10 05:17:50;;;;;;;22.60;10.23;;;-1.80;99.90;;;;;;4973437;28;20051;-86
2022/03/10 05:20:16;;;;;;;20.17;10.77;;;-1.70;99.90;;;;;;4968984;28;20127;-85
2022/03/10 05:22:47;;;;;;;25.03;10.90;;;-1.50;99.90;;;;;;4976943;28;20050;-86
2022/03/10 05:25:14;;;;;;;21.37;10.30;;;-1.70;99.90;;;;;;4976749;28;20043;-86
2022/03/10 05:27:41;;;;;;;22.47;11.40;;;-1.80;99.90;;;;;;4976749;28;20071;-85
2022/03/10 05:30:07;;;;;;;21.63;10.83;;;-1.80;99.90;;;;;;4975291;28;20054;-85
2022/03/10 05:32:33;;;;;;;23.93;10.93;;;-1.80;99.90;;;;;;4959870;28;20046;-86
2022/03/10 05:35:00;;;;;;;22.37;11.23;;;-1.80;99.90;;;;;;4977458;28;20134;-86
2022/03/10 05:37:26;;;;;;;22.50;10.93;;;-1.90;99.90;;;;;;4959008;28;20046;-86
2022/03/10 05:39:52;;;;;;;21.20;10.60;;;-1.10;99.90;;;;;;4977070;28;20367;-85
2022/03/10 05:42:18;;;;;;;23.13;11.50;;;-1.90;99.90;;;;;;4960250;28;20197;-86
2022/03/10 05:44:43;;;;;;;20.33;10.37;;;-1.90;99.90;;;;;;4959027;28;20124;-86
2022/03/10 05:47:09;;;;;;;24.27;11.00;;;-1.90;99.90;;;;;;4959447;28;20073;-85
2022/03/10 05:49:36;;;;;;;22.07;11.17;;;-1.90;99.90;;;;;;4959808;28;20098;-85
2022/03/10 05:52:01;;;;;;;21.87;11.07;;;-2.00;99.90;;;;;;4975588;28;20402;-86
2022/03/10 05:54:27;;;;;;;23.47;10.83;;;-1.90;99.90;;;;;;4976988;28;20105;-86
2022/03/10 05:56:52;;;;;;;20.43;10.27;;;-2.00;99.90;;;;;;4959998;28;20043;-85
2022/03/10 05:59:19;;;;;;;20.03;10.77;;;-1.90;99.90;;;;;;4976669;28;20047;-85
2022/03/10 06:01:49;;;;;;;20.77;10.87;;;-2.10;99.90;;;;;;4960316;28;20051;-86
2022/03/10 06:04:15;;;;;;;20.70;11.43;;;-2.10;99.90;;;;;;4977375;28;20082;-85
2022/03/10 06:06:43;;;;;;;25.70;12.13;;;-2.10;99.90;;;;;;4941228;23;20071;-85
2022/03/10 06:09:09;;;;;;;24.43;12.33;;;-2.10;99.90;;;;;;4921674;29;20040;-86
2022/03/10 06:11:35;;;;;;;21.77;12.27;;;-2.10;99.90;;;;;;4921488;29;20122;-85
2022/03/10 06:14:00;;;;;;;23.17;11.97;;;-2.10;99.90;;;;;;4937700;29;20047;-85
2022/03/10 06:16:26;;;;;;;24.53;12.40;;;-2.10;99.90;;;;;;4938254;29;20040;-86
2022/03/10 06:18:52;;;;;;;22.47;11.80;;;-2.10;99.90;;;;;;4940197;29;20052;-90
2022/03/10 06:21:17;;;;;;;23.80;11.57;;;-2.00;99.90;;;;;;4937996;29;20403;-93
2022/03/10 06:23:43;;;;;;;24.20;10.83;;;-2.00;99.90;;;;;;4921803;29;20050;-89
2022/03/10 06:26:09;;;;;;;25.13;12.10;;;-1.80;99.90;;;;;;4920773;29;20058;-89
2022/03/10 06:28:34;;;;;;;23.73;11.93;;;-2.00;99.90;;;;;;4920383;29;20044;-90
2022/03/10 06:31:00;;;;;;;22.37;11.03;;;-1.90;99.90;;;;;;4922117;29;20456;-88
2022/03/10 06:33:25;;;;;;;25.27;12.20;;;-1.90;99.90;;;;;;4920954;29;20174;-88
2022/03/10 06:35:51;;;;;;;24.73;11.23;;;-1.60;99.90;;;;;;4935227;23;20086;-89
2022/03/10 06:38:17;;;;;;;22.10;11.53;;;-1.80;99.90;;;;;;4940003;29;20071;-88
2022/03/10 06:40:42;;;;;;;23.20;11.47;;;-1.70;99.90;;;;;;4956238;29;20045;-88
2022/03/10 06:43:08;;;;;;;25.07;12.30;;;-1.50;99.90;;;;;;4939380;29;20403;-88
2022/03/10 06:45:34;;;;;;;21.87;10.67;;;-1.50;99.90;;;;;;4941180;29;20050;-87
2022/03/10 06:48:00;;;;;;;22.43;11.77;;;0.10;99.90;;;;;;4940333;29;20089;-86
2022/03/10 06:50:26;;;;;;;22.50;11.40;;;-1.40;99.90;;;;;;4940217;29;20058;-89
2022/03/10 06:53:10;;;;;;;21.70;12.47;;;-1.20;99.90;;;;;;4939621;29;20055;-89
2022/03/10 06:55:35;;;;;;;22.92;11.48;;;-0.80;99.90;;;;;;4956341;29;20058;-87
2022/03/10 06:58:01;;;;;;;24.90;11.37;;;-1.30;99.90;;;;;;4956620;29;20039;-86
2022/03/10 07:00:27;;;;;;;22.63;11.60;;;-1.30;99.90;;;;;;4957416;29;20055;-87
2022/03/10 07:02:52;;;;;;;23.73;11.43;;;-1.00;99.90;;;;;;4939299;29;20050;-87
2022/03/10 07:05:18;;;;;;;22.33;11.57;;;-0.70;99.90;;;;;;4939075;29;20047;-86
2022/03/10 07:07:44;;;;;;;23.07;11.77;;;-0.90;99.90;;;;;;4939276;29;20403;-86
2022/03/10 07:10:12;;;;;;;22.27;11.83;;;-0.70;99.90;;;;;;4938462;29;20053;-87
2022/03/10 07:12:40;;;;;;;22.90;11.70;;;-0.70;99.90;;;;;;4939404;29;20047;-86
2022/03/10 07:15:07;;;;;;;23.33;12.07;;;-0.60;99.90;;;;;;4938610;29;20055;-83
2022/03/10 07:17:33;;;;;;;23.37;11.80;;;-0.50;99.90;;;;;;4938137;29;20383;-86
2022/03/10 07:19:59;;;;;;;25.30;12.97;;;-0.20;99.90;;;;;;4938808;29;20081;-86
2022/03/10 07:22:24;;;;;;;24.00;11.50;;;-0.30;99.90;;;;;;4938677;29;20149;-86
2022/03/10 07:24:50;;;;;;;22.50;11.73;;;-0.10;99.90;;;;;;4956043;29;20230;-86
2022/03/10 07:27:22;;;;;;;24.77;12.03;;;0.00;99.90;;;;;;4956514;29;20043;-86
2022/03/10 07:29:47;;;;;;;22.90;11.77;;;0.20;99.90;;;;;;4938264;29;20868;-87
2022/03/10 07:32:23;;;;;;;23.27;12.13;;;0.30;99.90;;;;;;4939708;29;20047;-87
2022/03/10 07:34:55;;;;;;;21.10;10.80;;;1.50;99.90;;;;;;4939890;29;20545;-86
2022/03/10 07:37:21;;;;;;;23.57;11.90;;;0.50;99.90;;;;;;4915851;29;20063;-86
2022/03/10 07:39:46;;;;;;;22.20;11.40;;;0.60;99.90;;;;;;4916132;29;20052;-86
2022/03/10 07:42:12;;;;;;;24.73;11.80;;;0.70;99.90;;;;;;4916583;29;20106;-86
2022/03/10 07:44:38;;;;;;;22.40;11.90;;;0.90;99.90;;;;;;4914981;29;20048;-84
2022/03/10 07:47:04;;;;;;;24.67;12.13;;;1.00;99.90;;;;;;4916037;29;20044;-86
2022/03/10 07:49:29;;;;;;;24.07;11.73;;;1.10;99.90;;;;;;4917742;29;20045;-84
2022/03/10 07:51:56;;;;;;;22.53;11.80;;;1.20;99.90;;;;;;4915453;29;20074;-85
2022/03/10 07:54:22;;;;;;;20.97;10.73;;;1.40;99.90;;;;;;4899932;29;20052;-85
2022/03/10 07:56:48;;;;;;;23.13;11.53;;;2.70;99.90;;;;;;4916154;29;20130;-85
2022/03/10 07:59:13;;;;;;;23.70;11.50;;;1.60;99.90;;;;;;4916232;29;20134;-85
2022/03/10 08:01:39;;;;;;;22.40;11.33;;;1.80;99.90;;;;;;4916160;29;20481;-84
2022/03/10 08:04:07;;;;;;;20.47;11.27;;;1.90;99.90;;;;;;4917133;29;20476;-85
2022/03/10 08:06:45;;;;;;;22.10;11.93;;;1.90;99.90;;;;;;4914990;29;20048;-84
2022/03/10 08:09:11;;;;;;;21.00;11.03;;;2.20;99.90;;;;;;4916976;29;20064;-84
2022/03/10 08:11:43;;;;;;;21.20;11.17;;;2.60;99.90;;;;;;4899895;29;20040;-84
2022/03/10 08:14:12;;;;;;;22.17;11.80;;;3.80;99.90;;;;;;4915818;29;20048;-86
2022/03/10 08:16:37;;;;;;;21.20;11.50;;;2.50;99.90;;;;;;4900854;29;20063;-87
2022/03/10 08:19:03;;;;;;;22.57;11.43;;;3.70;99.90;;;;;;4916314;29;20598;-89
2022/03/10 08:21:28;;;;;;;21.63;11.10;;;3.80;99.90;;;;;;4899605;29;20044;-89
2022/03/10 08:24:12;;;;;;;20.17;10.53;;;2.90;99.90;;;;;;4921363;29;20108;-85
2022/03/10 08:26:39;;;;;;;18.58;10.82;;;2.90;99.90;;;;;;4913508;29;20498;-88
2022/03/10 08:29:05;;;;;;;21.83;11.47;;;3.10;99.90;;;;;;4901654;29;20079;-87
2022/03/10 08:31:30;;;;;;;21.67;11.50;;;3.30;99.90;;;;;;4900250;29;20083;-88
2022/03/10 08:33:56;;;;;;;22.67;11.63;;;3.50;99.90;;;;;;4899786;29;20048;-88
2022/03/10 08:36:21;;;;;;;21.30;10.97;;;3.70;99.90;;;;;;4918629;29;20055;-88
2022/03/10 08:38:48;;;;;;;24.63;11.70;;;3.90;99.90;;;;;;4956081;29;20047;-90
2022/03/10 08:41:14;;;;;;;18.83;10.63;;;4.00;99.90;;;;;;4937674;29;20043;-88
2022/03/10 08:43:39;;;;;;;20.97;11.40;;;4.50;99.90;;;;;;4936029;29;20046;-89
2022/03/10 08:46:06;;;;;;;19.83;10.77;;;5.20;99.90;;;;;;4938109;29;20066;-90
2022/03/10 08:48:44;;;;;;;19.90;10.67;;;5.80;99.90;;;;;;4937195;29;20070;-92
2022/03/10 08:51:09;;;;;;;19.57;11.10;;;6.10;99.90;;;;;;4938392;29;20087;-90
2022/03/10 08:53:36;;;;;;;21.60;10.60;;;4.70;99.90;;;;;;4937995;29;20083;-90
2022/03/10 08:56:06;;;;;;;20.50;10.93;;;4.90;99.90;;;;;;4961509;28;20058;-93
2022/03/10 08:58:32;;;;;;;20.40;10.23;;;7.00;99.90;;;;;;4938358;29;20070;-92
2022/03/10 09:00:58;;;;;;;21.20;10.90;;;5.40;99.90;;;;;;4937148;29;20491;-88
2022/03/10 09:03:25;;;;;;;18.63;10.03;;;5.40;99.90;;;;;;4937809;29;20181;-91
2022/03/10 09:05:50;;;;;;;20.67;11.43;;;5.50;99.90;;;;;;4937937;29;20051;-87
2022/03/10 09:08:16;;;;;;;20.27;10.93;;;6.90;99.90;;;;;;4936729;29;20050;-86
2022/03/10 09:10:41;;;;;;;21.07;11.17;;;5.80;99.90;;;;;;4938228;29;20066;-91
2022/03/10 09:13:07;;;;;;;20.27;10.37;;;5.80;99.90;;;;;;4956218;29;20538;-88
2022/03/10 09:15:34;;;;;;;19.20;10.23;;;6.00;99.90;;;;;;4940675;29;20406;-91
2022/03/10 09:18:00;;;;;;;19.67;10.73;;;6.30;99.90;;;;;;4938438;29;20086;-91
2022/03/10 09:20:29;;;;;;;20.40;10.40;;;6.30;99.90;;;;;;4956235;29;20082;-90
2022/03/10 09:22:54;;;;;;;19.90;10.60;;;6.60;99.90;;;;;;4939975;29;20079;-91
2022/03/10 09:25:20;;;;;;;19.73;10.60;;;6.50;99.90;;;;;;4938062;29;20047;-91
2022/03/10 09:27:46;;;;;;;19.67;10.70;;;6.70;99.90;;;;;;4955068;29;20501;-91
2022/03/10 09:30:12;;;;;;;17.50;10.53;;;6.70;99.90;;;;;;4936193;29;20514;-91
2022/03/10 09:32:43;;;;;;;20.60;9.97;;;7.60;99.90;;;;;;4954195;29;20048;-92
2022/03/10 09:35:12;;;;;;;21.17;10.73;;;7.10;99.90;;;;;;4936888;28;20059;-91
2022/03/10 09:38:03;;;;;;;21.40;10.63;;;7.60;99.90;;;;;;4938198;29;20451;-96
2022/03/10 09:40:30;;;;;;;19.07;10.13;;;7.90;99.90;;;;;;4957127;29;20051;-96
2022/03/10 09:42:55;;;;;;;20.30;10.13;;;7.70;99.90;;;;;;4960661;29;20047;-93
2022/03/10 09:45:22;;;;;;;18.90;10.20;;;7.30;99.90;;;;;;4938353;29;20549;-93
2022/03/10 09:47:48;;;;;;;17.53;9.87;;;7.90;99.90;;;;;;4939454;29;20054;-93
2022/03/10 09:50:18;;;;;;;23.33;10.53;;;8.00;99.90;;;;;;4937397;29;20039;-93
2022/03/10 09:52:45;;;;;;;20.17;10.43;;;8.20;99.90;;;;;;4938061;29;20134;-92
2022/03/10 09:55:13;;;;;;;18.60;10.07;;;8.20;99.90;;;;;;4937576;29;20051;-93
2022/03/10 09:57:45;;;;;;;22.70;11.03;;;8.40;99.90;;;;;;4938046;29;20130;-96
2022/03/10 10:00:17;;;;;;;17.77;9.97;;;8.70;99.90;;;;;;4937588;29;20058;-93
2022/03/10 10:02:56;;;;;;;18.73;10.17;;;8.90;99.90;;;;;;4943494;29;20059;-96
2022/03/10 10:08:57;;;;;;;19.87;10.63;;;9.00;99.90;;;;;;5016425;23;20122;-92
2022/03/10 10:11:33;;;;;;;18.53;10.03;;;9.30;99.90;;;;;;4921767;29;20044;-91
2022/03/10 10:13:59;;;;;;;18.20;10.00;;;9.60;99.90;;;;;;4932026;29;20062;-90
2022/03/10 10:16:25;;;;;;;18.20;10.40;;;9.50;99.90;;;;;;4931595;29;20055;-92
2022/03/10 10:18:56;;;;;;;19.17;11.03;;;9.50;99.90;;;;;;4938804;29;20035;-93
2022/03/10 10:21:23;;;;;;;19.88;10.95;;;9.80;99.90;;;;;;4929745;29;20055;-93
2022/03/10 10:23:54;;;;;;;20.67;11.10;;;11.50;99.90;;;;;;4939107;29;20047;-92
2022/03/10 10:26:26;;;;;;;18.52;10.23;;;10.20;99.90;;;;;;4931452;29;20046;-94
2022/03/10 10:28:52;;;;;;;19.67;11.02;;;12.10;99.90;;;;;;4948977;29;20043;-93
2022/03/10 10:31:27;;;;;;;19.85;11.27;;;12.20;99.90;;;;;;4932057;29;20067;-93
2022/03/10 10:34:09;;;;;;;20.85;10.57;;;10.60;99.30;;;;;;4926544;29;20047;-94
2022/03/10 10:36:37;;;;;;;19.38;10.13;;;10.60;98.50;;;;;;4926486;29;20061;-93
2022/03/10 10:39:09;;;;;;;17.92;10.52;;;11.70;99.10;;;;;;4928938;29;20047;-93
2022/03/10 10:41:36;;;;;;;19.27;10.88;;;12.60;97.60;;;;;;4941399;29;20077;-93
2022/03/10 10:44:15;;;;;;;19.02;10.82;;;11.70;96.90;;;;;;4921153;29;20041;-94
2022/03/10 10:46:59;;;;;;;19.38;11.10;;;12.80;96.10;;;;;;4938055;29;20050;-94
2022/03/10 10:49:35;;;;;;;20.65;11.10;;;11.50;94.10;;;;;;4919442;29;20040;-94
2022/03/10 10:52:11;;;;;;;17.48;10.50;;;12.30;94.40;;;;;;4936569;29;20036;-93
2022/03/10 10:54:40;;;;;;;21.52;11.57;;;13.30;94.40;;;;;;4925835;29;20146;-93
2022/03/10 10:57:06;;;;;;;18.13;11.23;;;13.30;93.90;;;;;;4945600;29;20048;-94
2022/03/10 10:59:44;;;;;;;22.75;11.90;;;13.60;95.10;;;;;;4926770;29;20077;-94
2022/03/10 11:02:21;;;;;;;17.85;11.23;;;12.90;92.80;;;;;;4938757;29;20043;-96
2022/03/10 11:04:53;;;;;;;18.05;12.02;;;13.10;92.40;;;;;;4926411;29;20032;-93
2022/03/10 11:07:23;;;;;;;18.90;12.48;;;12.60;92.80;;;;;;4930204;29;20086;-95
2022/03/10 11:10:08;;;;;;;18.95;11.60;;;13.30;90.80;;;;;;4927251;29;20059;-96
2022/03/10 11:12:39;;;;;;;20.60;12.65;;;13.30;90.30;;;;;;4943082;29;20055;-93
2022/03/10 11:15:07;;;;;;;19.15;12.50;;;13.10;83.80;;;;;;4923966;29;20052;-94
2022/03/10 11:17:34;;;;;;;19.00;12.20;;;13.40;88.30;;;;;;4922308;29;20513;-94
2022/03/10 11:20:02;;;;;;;20.25;11.82;;;13.80;87.10;;;;;;4921553;29;20050;-93
2022/03/10 11:23:09;;;;;;;21.65;12.23;;;15.00;86.70;;;;;;4941202;29;20047;-95
2022/03/10 11:26:14;;;;;;;19.25;11.68;;;13.70;81.60;;;;;;4955868;29;20043;-94
2022/03/10 11:28:49;;;;;;;19.55;12.00;;;13.80;83.20;;;;;;4939088;29;20039;-94
2022/03/10 11:31:16;;;;;;;20.73;11.52;;;13.90;81.90;;;;;;4939347;29;20059;-93
2022/03/10 11:33:43;;;;;;;18.58;11.48;;;14.40;83.00;;;;;;4943100;29;20027;-96
2022/03/10 11:36:32;;;;;;;19.25;11.68;;;13.90;81.90;;;;;;4949518;29;20056;-95
2022/03/10 11:39:07;;;;;;;19.45;11.77;;;14.70;78.90;;;;;;4943197;29;20115;-93
2022/03/10 11:41:47;;;;;;;23.15;12.23;;;14.30;77.00;;;;;;4923986;29;20460;-94
2022/03/10 11:44:22;;;;;;;19.55;11.68;;;15.40;74.30;;;;;;4919703;29;20044;-93
2022/03/10 11:46:57;;;;;;;18.88;12.15;;;14.80;77.70;;;;;;4920995;29;20126;-93
2022/03/10 11:49:26;;;;;;;19.38;11.68;;;14.30;75.50;;;;;;4919931;29;20051;-93
2022/03/10 11:51:53;;;;;;;21.40;12.90;;;14.80;75.70;;;;;;4919181;29;20048;-93
2022/03/10 11:54:27;;;;;;;18.38;11.48;;;15.80;76.60;;;;;;4919374;29;20575;-93
2022/03/10 11:56:53;;;;;;;18.27;12.15;;;14.60;75.10;;;;;;4936470;29;20043;-93
2022/03/10 11:59:24;;;;;;;20.05;12.32;;;15.30;75.80;;;;;;4919682;29;20047;-94
2022/03/10 12:01:56;;;;;;;19.45;11.70;;;15.10;76.20;;;;;;4937566;29;20551;-93
2022/03/10 12:04:41;;;;;;;19.00;12.05;;;15.00;75.10;;;;;;4920350;29;20087;-94
2022/03/10 12:07:15;;;;;;;19.33;12.10;;;15.00;73.70;;;;;;4924122;29;20061;-91
2022/03/10 12:09:42;;;;;;;20.52;12.60;;;15.10;75.20;;;;;;4920390;29;20051;-94
2022/03/10 12:12:25;;;;;;;18.63;11.90;;;15.90;76.10;;;;;;4919526;29;20055;-95
2022/03/10 12:14:55;;;;;;;18.08;11.88;;;16.30;75.40;;;;;;4920563;29;20051;-95
2022/03/10 12:17:44;;;;;;;20.65;13.02;;;15.20;76.50;;;;;;4919842;29;20039;-93
2022/03/10 12:20:41;;;;;;;18.58;11.52;;;15.50;74.10;;;;;;4918324;29;20063;-93
2022/03/10 12:23:07;;;;;;;21.67;12.95;;;16.80;74.50;;;;;;4924144;29;20060;-92
2022/03/10 12:25:47;;;;;;;19.98;12.52;;;16.80;76.30;;;;;;4935151;29;20721;-93
2022/03/10 12:28:37;;;;;;;21.10;12.07;;;15.90;74.70;;;;;;4918382;29;20450;-92
2022/03/10 12:31:07;;;;;;;20.35;12.65;;;15.90;72.00;;;;;;4915470;29;20142;-90
2022/03/10 12:33:35;;;;;;;20.90;13.02;;;15.90;74.10;;;;;;4919089;29;20054;-93
2022/03/10 12:36:01;;;;;;;20.42;13.60;;;16.40;73.70;;;;;;4919234;29;20059;-90
2022/03/10 12:38:38;;;;;;;19.08;12.93;;;16.40;74.20;;;;;;4935573;29;20054;-92
2022/03/10 12:41:04;;;;;;;20.63;12.65;;;16.40;72.90;;;;;;4918075;29;20505;-91
2022/03/10 12:43:30;;;;;;;19.88;13.00;;;16.70;74.60;;;;;;4919432;29;20039;-92
2022/03/10 12:46:03;;;;;;;22.42;13.20;;;17.00;73.50;;;;;;4919163;29;20543;-90